Time;durP1;ratioP1;P1;durP2;ratioP2;P2;SDS_P1;SDS_P2;PMS_P1;PMS_P2;Temp;Humidity;BMP_temperature;BMP_pressure;BME280_temperature;BME280_humidity;BME280_pressure;Samples;Min_cycle;Max_cycle;Signal;HPM_P1;HPM_P2
2023/09/23 00:01:21;;;;;;;10.35;4.00;;;12.40;99.90;;;;;;4989713;28;20420;-80
2023/09/23 00:03:47;;;;;;;10.50;4.60;;;12.10;99.90;;;;;;4980454;28;20415;-81
2023/09/23 00:06:13;;;;;;;8.15;4.22;;;12.40;99.90;;;;;;4986150;28;20917;-80
2023/09/23 00:08:41;;;;;;;9.70;4.03;;;12.30;99.90;;;;;;4977935;28;20430;-80
2023/09/23 00:11:10;;;;;;;9.10;4.63;;;12.40;99.90;;;;;;4998330;28;20486;-81
2023/09/23 00:13:36;;;;;;;10.60;4.45;;;12.10;99.90;;;;;;4946479;28;20422;-81
2023/09/23 00:16:14;;;;;;;10.53;4.97;;;11.90;99.90;;;;;;4959404;28;20477;-80
2023/09/23 00:18:40;;;;;;;7.93;4.43;;;;;;;;;;4994365;28;20434;-80
2023/09/23 00:21:07;;;;;;;9.00;4.10;;;12.40;99.90;;;;;;4994992;28;20405;-80
2023/09/23 00:23:34;;;;;;;7.25;3.90;;;12.20;99.90;;;;;;4991676;28;20445;-80
2023/09/23 00:26:03;;;;;;;8.15;3.60;;;12.10;99.90;;;;;;4975487;28;20853;-80
2023/09/23 00:28:32;;;;;;;7.32;3.85;;;12.20;99.90;;;;;;4981581;28;20432;-80
2023/09/23 00:31:05;;;;;;;7.95;3.53;;;12.10;99.90;;;;;;5003605;28;20410;-80
2023/09/23 00:33:36;;;;;;;7.22;3.50;;;12.00;99.90;;;;;;5001539;28;20450;-80
2023/09/23 00:36:01;;;;;;;5.40;2.83;;;12.30;99.90;;;;;;4984845;28;20436;-80
2023/09/23 00:38:27;;;;;;;5.85;3.03;;;;;;;;;;5004319;28;20453;-81
2023/09/23 00:40:55;;;;;;;5.68;3.05;;;;;;;;;;4997693;28;20438;-80
2023/09/23 00:43:23;;;;;;;9.35;3.30;;;;;;;;;;4976618;28;20414;-79
2023/09/23 00:45:54;;;;;;;6.30;3.42;;;12.10;99.90;;;;;;4991425;28;20410;-80
2023/09/23 00:48:21;;;;;;;7.18;3.42;;;12.10;99.90;;;;;;4991082;28;20508;-81
2023/09/23 00:50:48;;;;;;;7.80;3.70;;;12.10;99.90;;;;;;4991975;28;20426;-80
2023/09/23 00:53:14;;;;;;;9.10;3.30;;;;;;;;;;4979212;28;20420;-80
2023/09/23 00:55:51;;;;;;;6.15;3.67;;;12.30;99.90;;;;;;5004344;28;20421;-81
2023/09/23 00:58:21;;;;;;;8.23;3.95;;;11.90;99.90;;;;;;4982027;28;20475;-80
2023/09/23 01:00:48;;;;;;;5.40;3.10;;;12.20;99.90;;;;;;4990855;28;20420;-81
2023/09/23 01:03:15;;;;;;;5.30;2.90;;;12.10;99.90;;;;;;4971734;28;20411;-81
2023/09/23 01:05:42;;;;;;;7.80;2.90;;;;;;;;;;4992132;28;20402;-80
2023/09/23 01:08:11;;;;;;;4.25;2.80;;;;;;;;;;4987967;28;20411;-81
2023/09/23 01:10:38;;;;;;;5.60;2.75;;;12.00;99.90;;;;;;5013344;28;20444;-81
2023/09/23 01:13:16;;;;;;;4.47;2.55;;;12.00;99.90;;;;;;5007416;28;20733;-81
2023/09/23 01:15:41;;;;;;;4.10;2.40;;;12.00;99.90;;;;;;5008917;28;20416;-81
2023/09/23 01:18:08;;;;;;;4.68;2.60;;;12.90;99.90;;;;;;5009634;28;20433;-81
2023/09/23 01:20:37;;;;;;;5.53;3.28;;;12.10;99.90;;;;;;4991006;28;20457;-81
2023/09/23 01:23:04;;;;;;;6.50;3.60;;;;;;;;;;4980643;28;20480;-81
2023/09/23 01:25:34;;;;;;;6.83;3.90;;;;;;;;;;5003731;28;20405;-81
2023/09/23 01:28:01;;;;;;;5.95;4.30;;;12.00;99.90;;;;;;4981145;28;20414;-82
2023/09/23 01:30:29;;;;;;;7.65;4.68;;;12.10;99.90;;;;;;4994526;28;20750;-82
2023/09/23 01:32:56;;;;;;;6.45;4.50;;;12.00;99.90;;;;;;4976959;28;20413;-82
2023/09/23 01:35:22;;;;;;;7.43;5.10;;;11.90;99.90;;;;;;5007665;28;20429;-82
2023/09/23 01:37:50;;;;;;;7.95;4.60;;;;;;;;;;5009324;28;20425;-74
2023/09/23 01:40:19;;;;;;;8.32;4.82;;;12.10;99.90;;;;;;4996301;28;20421;-74
2023/09/23 01:42:51;;;;;;;8.77;5.20;;;;;;;;;;4990741;28;20422;-73
2023/09/23 01:45:22;;;;;;;8.85;5.00;;;12.20;99.90;;;;;;4977238;28;20454;-73
2023/09/23 01:47:49;;;;;;;7.97;5.13;;;12.00;99.90;;;;;;4989818;28;20410;-73
2023/09/23 01:50:17;;;;;;;8.27;5.40;;;11.90;99.90;;;;;;4996667;28;20425;-73
2023/09/23 01:52:45;;;;;;;8.82;5.50;;;11.90;99.90;;;;;;4989822;28;20414;-73
2023/09/23 01:55:12;;;;;;;9.73;6.30;;;11.90;99.90;;;;;;4979362;28;20422;-74
2023/09/23 01:57:41;;;;;;;12.60;7.30;;;12.00;99.90;;;;;;4957260;28;20430;-74
2023/09/23 02:00:15;;;;;;;10.25;6.95;;;12.10;99.90;;;;;;4992818;28;20433;-73
2023/09/23 02:02:41;;;;;;;11.95;8.13;;;12.00;99.90;;;;;;5006795;28;20447;-73
2023/09/23 02:05:08;;;;;;;12.85;8.70;;;11.90;99.90;;;;;;4990771;28;20424;-73
2023/09/23 02:07:34;;;;;;;14.35;9.20;;;11.80;99.90;;;;;;4992291;28;20499;-73
2023/09/23 02:10:00;;;;;;;17.30;10.60;;;12.00;99.90;;;;;;5001377;28;20522;-73
2023/09/23 02:12:26;;;;;;;15.93;10.85;;;12.20;99.90;;;;;;5007010;28;20432;-73
2023/09/23 02:14:53;;;;;;;16.73;11.18;;;;;;;;;;5006211;28;20435;-74
2023/09/23 02:17:22;;;;;;;18.77;11.43;;;12.00;99.90;;;;;;4994206;28;20450;-74
2023/09/23 02:19:50;;;;;;;18.88;12.20;;;;;;;;;;5005574;28;20419;-85
2023/09/23 02:22:18;;;;;;;19.40;12.00;;;;;;;;;;4990256;28;20518;-85
2023/09/23 02:24:44;;;;;;;21.13;12.90;;;12.00;99.90;;;;;;4976444;28;20421;-85
2023/09/23 02:27:10;;;;;;;19.27;12.33;;;11.90;99.90;;;;;;4997111;28;20493;-84
2023/09/23 02:29:36;;;;;;;25.52;12.68;;;11.90;99.90;;;;;;4992841;28;20835;-84
2023/09/23 02:32:02;;;;;;;20.85;12.75;;;11.60;99.90;;;;;;5004122;28;20513;-84
2023/09/23 02:34:28;;;;;;;19.15;12.45;;;;;;;;;;4988525;28;20419;-85
2023/09/23 02:36:54;;;;;;;24.30;13.05;;;11.60;99.90;;;;;;4988084;28;20811;-86
2023/09/23 02:39:20;;;;;;;18.75;12.13;;;11.80;99.90;;;;;;4987831;28;20433;-85
2023/09/23 02:41:47;;;;;;;21.00;12.27;;;11.50;99.90;;;;;;4993684;28;20422;-85
2023/09/23 02:44:14;;;;;;;18.65;12.23;;;11.80;99.90;;;;;;4995109;28;20410;-85
2023/09/23 02:46:41;;;;;;;21.05;12.30;;;;;;;;;;4995494;28;20917;-85
2023/09/23 02:49:08;;;;;;;19.63;11.95;;;11.60;99.90;;;;;;4982608;28;20421;-85
2023/09/23 02:51:34;;;;;;;18.85;12.43;;;;;;;;;;4999605;28;20414;-84
2023/09/23 02:53:59;;;;;;;18.75;12.52;;;11.60;99.90;;;;;;4963327;28;20409;-84
2023/09/23 02:56:27;;;;;;;18.95;12.30;;;11.60;99.90;;;;;;4962877;28;20411;-84
2023/09/23 02:58:52;;;;;;;19.30;12.13;;;11.50;99.90;;;;;;4979744;28;20542;-83
2023/09/23 03:01:18;;;;;;;20.03;12.80;;;11.60;99.90;;;;;;5001764;28;20410;-85
2023/09/23 03:03:46;;;;;;;20.23;11.82;;;11.40;99.90;;;;;;4990876;28;20430;-84
2023/09/23 03:06:15;;;;;;;19.70;12.57;;;;;;;;;;4971816;28;20422;-84
2023/09/23 03:08:47;;;;;;;18.30;12.10;;;;;;;;;;4975447;28;20411;-84
2023/09/23 03:11:17;;;;;;;20.43;12.47;;;11.40;99.90;;;;;;4989896;28;20793;-84
2023/09/23 03:13:44;;;;;;;18.13;12.20;;;11.30;99.90;;;;;;4989909;28;20452;-84
2023/09/23 03:16:12;;;;;;;20.90;13.02;;;11.20;99.90;;;;;;4995062;28;21104;-84
2023/09/23 03:21:42;;;;;;;19.60;13.20;;;11.30;99.90;;;;;;4970074;28;20959;-83
2023/09/23 03:24:11;;;;;;;21.42;13.32;;;;;;;;;;4950423;28;20434;-84
2023/09/23 03:26:37;;;;;;;18.95;12.93;;;;;;;;;;4978840;28;20414;-83
2023/09/23 03:29:06;;;;;;;20.05;13.82;;;11.20;99.90;;;;;;4972012;28;20817;-84
2023/09/23 03:31:32;;;;;;;22.98;14.10;;;11.30;99.90;;;;;;5003678;28;20412;-84
2023/09/23 03:33:59;;;;;;;22.10;12.88;;;;;;;;;;4955346;28;20430;-84
2023/09/23 03:36:25;;;;;;;22.48;13.75;;;11.30;99.90;;;;;;5003655;28;20502;-83
2023/09/23 03:38:52;;;;;;;20.60;14.32;;;;;;;;;;4972385;28;20521;-84
2023/09/23 03:41:18;;;;;;;22.23;13.87;;;;;;;;;;4999179;28;20948;-82
2023/09/23 03:43:44;;;;;;;22.20;14.40;;;;;;;;;;4978474;28;20784;-83
2023/09/23 03:46:11;;;;;;;22.23;14.80;;;11.30;99.90;;;;;;4980107;28;20422;-83
2023/09/23 03:48:37;;;;;;;23.20;14.43;;;11.50;99.90;;;;;;4992995;28;20969;-83
2023/09/23 03:51:05;;;;;;;23.02;14.70;;;11.30;99.90;;;;;;4979990;28;20508;-83
2023/09/23 03:53:30;;;;;;;23.60;15.17;;;11.20;99.90;;;;;;4964840;28;20915;-82
2023/09/23 03:56:00;;;;;;;24.53;15.20;;;11.30;99.90;;;;;;4977613;28;20410;-83
2023/09/23 03:58:27;;;;;;;25.17;15.02;;;;;;;;;;4980142;28;20946;-84
2023/09/23 04:00:57;;;;;;;22.20;14.30;;;11.40;99.90;;;;;;4991518;28;20413;-84
2023/09/23 04:03:23;;;;;;;24.17;14.30;;;11.20;99.90;;;;;;4997327;28;20984;-84
2023/09/23 04:05:58;;;;;;;21.58;14.15;;;11.30;99.90;;;;;;4975560;28;20442;-82
2023/09/23 04:08:24;;;;;;;22.17;14.20;;;10.70;99.90;;;;;;4978401;28;20503;-84
2023/09/23 04:10:50;;;;;;;21.15;13.30;;;11.00;99.90;;;;;;4983320;28;20420;-82
2023/09/23 04:13:16;;;;;;;18.45;13.23;;;11.20;99.90;;;;;;5006147;28;20440;-85
2023/09/23 04:15:42;;;;;;;18.92;13.30;;;11.10;99.90;;;;;;4992790;28;20431;-84
2023/09/23 04:18:09;;;;;;;18.90;12.95;;;11.10;99.90;;;;;;4980095;28;20433;-83
2023/09/23 04:20:36;;;;;;;18.38;13.57;;;10.90;99.90;;;;;;5002124;28;20475;-84
2023/09/23 04:23:02;;;;;;;18.33;12.93;;;;;;;;;;5002278;28;20509;-82
2023/09/23 04:25:28;;;;;;;21.52;13.25;;;11.10;99.90;;;;;;4974667;28;20824;-84
2023/09/23 04:27:54;;;;;;;18.92;13.27;;;11.00;99.90;;;;;;4998007;28;20795;-83
2023/09/23 04:30:21;;;;;;;19.60;13.90;;;10.70;99.90;;;;;;4996786;28;20761;-83
2023/09/23 04:32:47;;;;;;;19.75;13.90;;;;;;;;;;5001079;28;20925;-83
2023/09/23 04:35:14;;;;;;;22.67;13.48;;;;;;;;;;4989600;28;20971;-84
2023/09/23 04:37:40;;;;;;;19.77;13.90;;;;;;;;;;4984493;28;20425;-84
2023/09/23 04:40:11;;;;;;;22.13;14.38;;;10.90;99.90;;;;;;4973811;28;20418;-83
2023/09/23 04:42:38;;;;;;;20.88;13.93;;;;;;;;;;4996115;28;20422;-84
2023/09/23 04:45:05;;;;;;;20.65;13.88;;;;;;;;;;4995686;28;20509;-84
2023/09/23 04:47:32;;;;;;;25.23;13.77;;;11.10;99.90;;;;;;4990926;28;20981;-85
2023/09/23 04:49:59;;;;;;;23.40;13.55;;;10.90;99.90;;;;;;4994207;28;20922;-83
2023/09/23 04:52:27;;;;;;;20.73;13.70;;;11.20;99.90;;;;;;4994664;28;20462;-83
2023/09/23 04:54:54;;;;;;;21.25;13.45;;;11.10;99.90;;;;;;5004800;28;20489;-83
2023/09/23 04:57:20;;;;;;;22.42;14.27;;;10.80;99.90;;;;;;5009352;28;20464;-84
2023/09/23 04:59:46;;;;;;;21.75;13.57;;;10.90;99.90;;;;;;4996214;28;20496;-83
2023/09/23 05:02:13;;;;;;;20.67;14.02;;;11.00;99.90;;;;;;4993734;28;20939;-85
2023/09/23 05:04:39;;;;;;;23.07;13.87;;;10.90;99.90;;;;;;4986305;28;20453;-84
2023/09/23 05:07:05;;;;;;;20.10;13.27;;;11.00;99.90;;;;;;4974806;28;20415;-84
2023/09/23 05:09:30;;;;;;;20.67;14.63;;;11.00;99.90;;;;;;4994602;28;20466;-84
2023/09/23 05:11:57;;;;;;;23.52;14.00;;;10.90;99.90;;;;;;5010152;28;20409;-84
2023/09/23 05:14:25;;;;;;;21.53;14.17;;;;;;;;;;4999097;28;20435;-83
2023/09/23 05:16:51;;;;;;;20.73;13.97;;;10.90;99.90;;;;;;4991615;28;20454;-84
2023/09/23 05:19:20;;;;;;;22.13;14.88;;;10.70;99.90;;;;;;4999071;28;20433;-84
2023/09/23 05:21:46;;;;;;;20.67;14.32;;;10.70;99.90;;;;;;4979053;28;20403;-83
2023/09/23 05:24:12;;;;;;;20.50;14.88;;;10.60;99.90;;;;;;4985150;28;20410;-85
2023/09/23 05:26:40;;;;;;;22.77;14.95;;;;;;;;;;4986826;28;20468;-81
2023/09/23 05:29:06;;;;;;;22.52;14.90;;;10.60;99.90;;;;;;5066003;28;20470;-82
2023/09/23 05:31:32;;;;;;;23.45;15.98;;;;;;;;;;4977464;28;20447;-82
2023/09/23 05:33:58;;;;;;;28.00;17.33;;;10.70;99.90;;;;;;4993785;28;20409;-84
2023/09/23 05:36:23;;;;;;;25.33;16.53;;;10.50;99.90;;;;;;4978033;28;20424;-83
2023/09/23 05:38:49;;;;;;;25.90;17.10;;;;;;;;;;4991279;28;20606;-84
2023/09/23 05:41:15;;;;;;;27.73;17.25;;;;;;;;;;4998453;28;20448;-83
2023/09/23 05:43:41;;;;;;;27.60;17.73;;;10.80;99.90;;;;;;4985886;28;20418;-84
2023/09/23 05:46:09;;;;;;;31.33;18.40;;;;;;;;;;4961540;28;20407;-82
2023/09/23 05:48:35;;;;;;;28.88;18.92;;;;;;;;;;4983992;28;20515;-83
2023/09/23 05:51:05;;;;;;;31.05;19.38;;;10.80;99.90;;;;;;4989755;28;20505;-82
2023/09/23 05:53:33;;;;;;;30.40;19.45;;;10.60;99.90;;;;;;4998087;28;20448;-83
2023/09/23 05:56:01;;;;;;;31.98;19.13;;;10.40;99.90;;;;;;4971344;28;20414;-82
2023/09/23 05:58:27;;;;;;;34.57;20.47;;;;;;;;;;4997128;28;20427;-82
2023/09/23 06:00:53;;;;;;;33.50;19.73;;;10.30;99.90;;;;;;5001284;28;20465;-80
2023/09/23 06:03:19;;;;;;;33.15;19.65;;;;;;;;;;4975387;28;20497;-84
2023/09/23 06:05:45;;;;;;;35.25;21.15;;;;;;;;;;4999660;28;20574;-83
2023/09/23 06:08:12;;;;;;;36.78;20.95;;;;;;;;;;4978238;28;20434;-84
2023/09/23 06:10:39;;;;;;;35.10;21.27;;;;;;;;;;4981532;28;20589;-85
2023/09/23 06:13:09;;;;;;;36.70;21.88;;;;;;;;;;4997554;28;20433;-83
2023/09/23 06:15:35;;;;;;;36.00;21.92;;;11.00;99.90;;;;;;4984770;28;20925;-84
2023/09/23 06:18:01;;;;;;;35.80;21.83;;;10.80;99.90;;;;;;5008359;28;20433;-85
2023/09/23 06:20:28;;;;;;;38.17;22.45;;;;;;;;;;4979671;28;20417;-84
2023/09/23 06:22:54;;;;;;;35.45;21.67;;;;;;;;;;5003620;28;20803;-83
2023/09/23 06:25:20;;;;;;;36.03;21.85;;;;;;;;;;5002006;28;20920;-80
2023/09/23 06:27:46;;;;;;;38.25;23.63;;;;;;;;;;5009699;28;20416;-82
2023/09/23 06:30:15;;;;;;;34.72;22.48;;;;;;;;;;4980835;28;20414;-85
2023/09/23 06:32:41;;;;;;;34.47;22.58;;;;;;;;;;4973039;28;20423;-83
2023/09/23 06:35:09;;;;;;;34.63;22.58;;;11.90;99.90;;;;;;5007976;28;20415;-84
2023/09/23 06:37:35;;;;;;;33.38;21.40;;;11.70;99.90;;;;;;4979729;28;20437;-84
2023/09/23 06:40:01;;;;;;;34.33;21.93;;;12.20;99.90;;;;;;4978522;28;20405;-85
2023/09/23 06:42:26;;;;;;;29.35;20.13;;;12.00;99.90;;;;;;4976303;28;20440;-85
2023/09/23 06:44:52;;;;;;;33.83;21.35;;;12.20;99.90;;;;;;5022377;28;20739;-84
2023/09/23 06:47:18;;;;;;;30.42;20.58;;;12.00;99.90;;;;;;4993511;28;20418;-86
2023/09/23 06:49:43;;;;;;;31.85;21.35;;;12.10;99.90;;;;;;4988586;28;20432;-85
2023/09/23 06:52:09;;;;;;;32.05;20.98;;;12.00;99.90;;;;;;4976306;28;20418;-87
2023/09/23 06:54:35;;;;;;;32.53;21.50;;;;;;;;;;4970607;28;20794;-87
2023/09/23 06:57:01;;;;;;;31.08;20.67;;;12.10;99.90;;;;;;4965244;28;20457;-86
2023/09/23 06:59:27;;;;;;;32.63;20.98;;;;;;;;;;5009194;28;20876;-87
2023/09/23 07:01:53;;;;;;;34.20;20.80;;;;;;;;;;4986956;28;20410;-85
2023/09/23 07:04:19;;;;;;;31.35;20.63;;;12.10;99.90;;;;;;4986148;28;20507;-85
2023/09/23 07:06:44;;;;;;;31.83;20.58;;;12.10;99.90;;;;;;4990209;28;20541;-88
2023/09/23 07:09:10;;;;;;;31.42;20.13;;;;;;;;;;4960690;28;20403;-87
2023/09/23 07:11:37;;;;;;;30.73;19.48;;;12.80;99.90;;;;;;4991498;28;20428;-85
2023/09/23 07:14:05;;;;;;;28.38;18.02;;;;;;;;;;4979977;28;20433;-86
2023/09/23 07:16:32;;;;;;;25.85;17.42;;;;;;;;;;5002202;28;20489;-85
2023/09/23 07:18:57;;;;;;;24.02;17.27;;;13.10;99.90;;;;;;5000443;28;20435;-87
2023/09/23 07:21:23;;;;;;;25.15;16.33;;;13.20;99.90;;;;;;4995884;28;20454;-85
2023/09/23 07:23:49;;;;;;;23.07;16.13;;;13.20;99.90;;;;;;4989271;28;20933;-88
2023/09/23 07:26:21;;;;;;;20.57;15.53;;;13.50;99.90;;;;;;4993712;28;20412;-87
2023/09/23 07:28:50;;;;;;;22.42;15.95;;;13.60;99.90;;;;;;4999473;28;20462;-85
2023/09/23 07:31:16;;;;;;;22.98;16.23;;;13.40;99.90;;;;;;4993490;28;20412;-84
2023/09/23 07:33:42;;;;;;;24.23;16.65;;;13.70;99.90;;;;;;4992746;28;21106;-85
2023/09/23 07:36:12;;;;;;;21.42;15.70;;;;;;;;;;5007985;28;20468;-84
2023/09/23 07:38:38;;;;;;;22.85;15.60;;;;;;;;;;4991815;28;20441;-83
2023/09/23 07:41:04;;;;;;;23.52;15.18;;;13.70;99.90;;;;;;5001766;28;20762;-85
2023/09/23 07:43:30;;;;;;;20.98;15.43;;;13.80;99.90;;;;;;5013486;28;20424;-86
2023/09/23 07:45:56;;;;;;;19.23;14.57;;;;;;;;;;4965532;28;20429;-86
2023/09/23 07:48:21;;;;;;;21.00;14.82;;;14.30;99.90;;;;;;4991466;28;20424;-86
2023/09/23 07:50:47;;;;;;;19.98;14.90;;;14.30;99.90;;;;;;4994044;28;20414;-86
2023/09/23 07:53:13;;;;;;;18.50;14.03;;;14.60;99.90;;;;;;4988311;28;20418;-86
2023/09/23 07:55:38;;;;;;;17.10;12.63;;;14.60;99.90;;;;;;4991461;28;20451;-85
2023/09/23 07:58:04;;;;;;;17.67;12.63;;;14.50;99.90;;;;;;4981248;28;20483;-85
2023/09/23 08:00:30;;;;;;;17.37;12.30;;;14.80;99.90;;;;;;4995723;28;20488;-86
2023/09/23 08:02:56;;;;;;;16.43;12.73;;;14.60;99.90;;;;;;4984662;28;20905;-86
2023/09/23 08:05:23;;;;;;;17.88;13.25;;;14.70;99.90;;;;;;4994374;28;20779;-86
2023/09/23 08:07:51;;;;;;;19.65;13.48;;;14.70;99.90;;;;;;4973991;28;20445;-85
2023/09/23 08:10:17;;;;;;;18.80;13.23;;;14.80;99.90;;;;;;4988219;28;21073;-86
2023/09/23 08:12:44;;;;;;;19.58;13.43;;;14.80;99.90;;;;;;4989465;28;20430;-87
2023/09/23 08:15:11;;;;;;;19.60;14.27;;;14.50;99.90;;;;;;4988279;28;20762;-86
2023/09/23 08:17:39;;;;;;;21.95;14.88;;;14.40;99.90;;;;;;4969303;28;20798;-87
2023/09/23 08:20:17;;;;;;;20.08;14.60;;;14.30;99.90;;;;;;4998522;28;20437;-87
2023/09/23 08:22:46;;;;;;;19.85;14.13;;;14.30;99.90;;;;;;4984599;28;20757;-86
2023/09/23 08:25:17;;;;;;;17.45;13.55;;;14.40;99.90;;;;;;4997821;28;20428;-86
2023/09/23 08:27:43;;;;;;;18.15;13.45;;;14.60;99.90;;;;;;5000270;28;20422;-85
2023/09/23 08:30:10;;;;;;;16.80;13.30;;;14.80;99.90;;;;;;4986600;28;20419;-87
2023/09/23 08:32:37;;;;;;;16.70;12.80;;;14.70;99.90;;;;;;5001434;28;20420;-87
2023/09/23 08:35:03;;;;;;;15.97;12.53;;;15.00;99.90;;;;;;4988370;28;20426;-86
2023/09/23 08:37:29;;;;;;;17.75;12.30;;;15.00;99.90;;;;;;4980588;28;20449;-86
2023/09/23 08:39:55;;;;;;;17.58;12.23;;;14.90;99.90;;;;;;4987854;28;20736;-86
2023/09/23 08:42:23;;;;;;;14.52;11.60;;;14.70;99.90;;;;;;4972080;28;20407;-85
2023/09/23 08:44:50;;;;;;;16.80;12.30;;;14.80;99.90;;;;;;4997013;28;20424;-87
2023/09/23 08:47:18;;;;;;;16.05;11.13;;;15.20;99.90;;;;;;4992541;28;20446;-85
2023/09/23 08:49:47;;;;;;;15.38;10.77;;;15.30;99.90;;;;;;4999053;28;20532;-86
2023/09/23 08:52:17;;;;;;;12.93;9.50;;;15.60;99.90;;;;;;4986316;28;20410;-85
2023/09/23 08:54:48;;;;;;;11.93;8.75;;;15.70;99.90;;;;;;4977744;28;20454;-87
2023/09/23 08:57:16;;;;;;;14.23;8.27;;;16.10;99.90;;;;;;4985833;28;20434;-85
2023/09/23 08:59:44;;;;;;;12.00;8.13;;;15.70;99.90;;;;;;4980292;28;20794;-86
2023/09/23 09:02:15;;;;;;;12.67;8.03;;;15.90;99.90;;;;;;4996621;28;20414;-87
2023/09/23 09:04:41;;;;;;;12.05;7.60;;;15.90;99.90;;;;;;4993167;28;20411;-85
2023/09/23 09:07:06;;;;;;;10.50;6.90;;;15.90;99.90;;;;;;4992376;28;20497;-85
2023/09/23 09:09:32;;;;;;;9.67;6.07;;;16.10;99.90;;;;;;4996421;28;20411;-85
2023/09/23 09:11:58;;;;;;;9.77;6.43;;;16.40;99.90;;;;;;5005106;28;20462;-85
2023/09/23 09:14:25;;;;;;;9.02;6.07;;;16.20;99.90;;;;;;4976538;28;20452;-85
2023/09/23 09:16:51;;;;;;;8.88;5.72;;;16.50;99.90;;;;;;4996778;28;20914;-83
2023/09/23 09:19:18;;;;;;;7.60;5.60;;;16.90;99.90;;;;;;4981879;28;20403;-87
2023/09/23 09:21:44;;;;;;;10.15;5.75;;;16.80;99.90;;;;;;4980103;28;20547;-84
2023/09/23 09:24:10;;;;;;;8.80;5.70;;;16.70;99.90;;;;;;4990392;28;20486;-85
2023/09/23 09:26:35;;;;;;;9.20;5.80;;;16.70;99.90;;;;;;4976615;28;20473;-85
2023/09/23 09:29:03;;;;;;;8.93;5.47;;;16.40;99.90;;;;;;5001180;28;20424;-85
2023/09/23 09:31:36;;;;;;;8.33;5.37;;;16.40;99.90;;;;;;4976873;28;20463;-85
2023/09/23 09:34:05;;;;;;;9.10;5.50;;;16.60;99.90;;;;;;4980574;28;20422;-86
2023/09/23 09:36:35;;;;;;;9.38;5.57;;;16.50;99.90;;;;;;4997555;28;20494;-85
2023/09/23 09:39:12;;;;;;;9.48;5.15;;;16.50;99.90;;;;;;4997530;28;20844;-86
2023/09/23 09:41:51;;;;;;;7.38;5.57;;;16.40;99.90;;;;;;4987211;28;20468;-74
2023/09/23 09:44:21;;;;;;;9.13;5.43;;;16.40;99.90;;;;;;5020053;28;20423;-75
2023/09/23 09:46:48;;;;;;;8.43;5.65;;;16.90;99.90;;;;;;4975764;28;20411;-75
2023/09/23 09:49:16;;;;;;;8.52;5.05;;;17.10;99.90;;;;;;4982648;28;20417;-73
2023/09/23 09:51:46;;;;;;;8.73;4.88;;;18.80;99.90;;;;;;4983667;28;20995;-73
2023/09/23 09:54:25;;;;;;;6.65;4.38;;;17.20;99.90;;;;;;4998940;28;20552;-73
2023/09/23 09:56:53;;;;;;;7.88;4.75;;;17.50;99.90;;;;;;4980552;28;20741;-72
2023/09/23 09:59:35;;;;;;;9.10;5.40;;;17.40;99.90;;;;;;4964739;28;20434;-73
2023/09/23 10:02:04;;;;;;;9.20;4.80;;;17.20;99.90;;;;;;4982527;28;20415;-73
2023/09/23 10:04:32;;;;;;;7.90;5.35;;;17.10;99.90;;;;;;4980062;28;20484;-71
2023/09/23 10:06:58;;;;;;;10.25;6.00;;;17.00;99.90;;;;;;4982196;28;20411;-72
2023/09/23 10:09:31;;;;;;;9.13;6.43;;;16.70;99.90;;;;;;4976085;28;20440;-73
2023/09/23 10:11:59;;;;;;;10.80;5.80;;;16.70;99.90;;;;;;4996100;28;20889;-73
2023/09/23 10:14:26;;;;;;;7.53;4.80;;;16.70;99.90;;;;;;4990151;28;20509;-73
2023/09/23 10:17:01;;;;;;;9.32;4.90;;;16.50;99.90;;;;;;4973964;28;20451;-73
2023/09/23 10:19:37;;;;;;;10.20;5.10;;;16.30;99.90;;;;;;4987752;28;20469;-73
2023/09/23 10:22:24;;;;;;;8.05;4.55;;;16.20;99.90;;;;;;5000517;28;20409;-74
2023/09/23 10:25:01;;;;;;;12.10;4.93;;;16.30;99.90;;;;;;4994602;28;20492;-73
2023/09/23 10:27:27;;;;;;;7.90;4.40;;;16.50;99.90;;;;;;4996796;28;20440;-73
2023/09/23 10:29:53;;;;;;;7.17;4.17;;;16.60;99.90;;;;;;4975090;28;20491;-74
2023/09/23 10:32:19;;;;;;;7.27;4.20;;;16.70;99.90;;;;;;5001007;28;20960;-74
2023/09/23 10:34:48;;;;;;;7.00;3.83;;;16.80;99.90;;;;;;4988787;28;20405;-74
2023/09/23 10:37:27;;;;;;;6.82;3.95;;;16.90;99.90;;;;;;4995433;28;20433;-74
2023/09/23 10:39:53;;;;;;;6.57;4.10;;;16.60;99.90;;;;;;5010643;28;20427;-74
2023/09/23 10:42:19;;;;;;;8.02;3.95;;;16.70;99.90;;;;;;4980655;28;20922;-83
2023/09/23 10:44:48;;;;;;;7.00;3.72;;;16.50;99.90;;;;;;5000973;28;20463;-81
2023/09/23 10:47:14;;;;;;;6.95;3.05;;;16.60;99.90;;;;;;4973218;28;20902;-83
2023/09/23 10:49:40;;;;;;;6.60;2.92;;;16.80;99.90;;;;;;4992720;28;20421;-84
2023/09/23 10:52:06;;;;;;;6.50;2.67;;;16.70;99.90;;;;;;4993486;28;20413;-83
2023/09/23 10:54:32;;;;;;;6.47;3.07;;;16.90;99.90;;;;;;4998858;28;21008;-85
2023/09/23 10:57:00;;;;;;;7.10;3.37;;;17.30;99.90;;;;;;4973526;28;20407;-86
2023/09/23 10:59:26;;;;;;;5.47;2.90;;;17.50;99.90;;;;;;4990002;28;20423;-86
2023/09/23 11:01:55;;;;;;;6.00;2.65;;;17.80;99.90;;;;;;4973775;28;20826;-87
2023/09/23 11:04:23;;;;;;;6.00;2.38;;;17.80;99.90;;;;;;4992422;28;20413;-85
2023/09/23 11:06:48;;;;;;;6.07;2.40;;;17.90;99.90;;;;;;5006949;28;20401;-88
2023/09/23 11:09:14;;;;;;;8.87;3.40;;;18.00;99.90;;;;;;4989305;28;20839;-86
2023/09/23 11:11:41;;;;;;;5.07;3.00;;;17.70;99.90;;;;;;4973334;28;20406;-86
2023/09/23 11:14:13;;;;;;;7.78;3.10;;;17.60;99.90;;;;;;4997170;28;20413;-86
2023/09/23 11:16:44;;;;;;;5.77;2.90;;;17.50;99.90;;;;;;4978333;28;20480;-86
2023/09/23 11:19:10;;;;;;;5.32;3.05;;;17.40;99.90;;;;;;4976616;28;20465;-85
2023/09/23 11:21:46;;;;;;;7.95;2.78;;;17.80;99.90;;;;;;4998359;28;20442;-85
2023/09/23 11:24:15;;;;;;;8.30;2.50;;;17.60;99.90;;;;;;5004653;28;20477;-87
2023/09/23 11:26:41;;;;;;;5.30;2.25;;;17.30;99.90;;;;;;5009093;28;20472;-87
2023/09/23 11:29:10;;;;;;;6.50;2.47;;;17.10;99.90;;;;;;5001173;28;20463;-86
2023/09/23 11:31:35;;;;;;;4.47;2.30;;;17.20;99.90;;;;;;4974062;28;20422;-86
2023/09/23 11:34:01;;;;;;;5.43;2.60;;;17.20;99.90;;;;;;4995175;28;21046;-86
2023/09/23 11:36:28;;;;;;;6.63;2.47;;;17.10;99.90;;;;;;4989236;28;20411;-85
2023/09/23 11:38:54;;;;;;;6.05;2.72;;;17.00;99.90;;;;;;5002425;28;20952;-86
2023/09/23 11:41:19;;;;;;;5.72;3.33;;;16.90;99.90;;;;;;5009138;28;20404;-82
2023/09/23 11:43:46;;;;;;;6.53;3.30;;;16.80;99.90;;;;;;5008069;28;20420;-84
2023/09/23 11:46:14;;;;;;;9.57;3.28;;;16.70;99.90;;;;;;4986789;28;20473;-82
2023/09/23 11:48:41;;;;;;;6.05;3.08;;;16.50;99.90;;;;;;4981097;28;20417;-82
2023/09/23 11:51:07;;;;;;;7.78;3.67;;;16.30;99.90;;;;;;4989252;28;20895;-82
2023/09/23 11:53:35;;;;;;;3.73;1.80;;;16.10;99.90;;;;;;4956756;28;20413;-83
2023/09/23 11:56:01;;;;;;;4.70;1.90;;;16.20;99.90;;;;;;4966006;28;20509;-82
2023/09/23 11:58:28;;;;;;;4.70;2.00;;;16.10;99.90;;;;;;4976586;28;20437;-82
2023/09/23 12:00:54;;;;;;;5.10;1.98;;;16.00;99.90;;;;;;4988857;28;20415;-82
2023/09/23 12:03:20;;;;;;;4.07;1.70;;;16.20;99.90;;;;;;4999710;28;20432;-83
2023/09/23 12:05:48;;;;;;;5.30;2.40;;;16.10;99.90;;;;;;4974726;28;20419;-84
2023/09/23 12:08:14;;;;;;;3.95;1.80;;;15.60;99.90;;;;;;5060776;28;20452;-82
2023/09/23 12:10:39;;;;;;;4.18;1.90;;;15.90;99.90;;;;;;4977148;28;20410;-81
2023/09/23 12:13:06;;;;;;;4.55;2.00;;;15.50;99.90;;;;;;4983050;28;20848;-83
2023/09/23 12:15:33;;;;;;;4.07;1.90;;;15.50;99.90;;;;;;4974575;28;20968;-83
2023/09/23 12:17:59;;;;;;;5.10;2.30;;;15.30;99.90;;;;;;4973207;28;20438;-83
2023/09/23 12:20:26;;;;;;;5.22;2.40;;;15.60;99.90;;;;;;5003333;28;20405;-82
2023/09/23 12:22:53;;;;;;;6.15;2.50;;;15.30;99.90;;;;;;4988729;28;20434;-84
2023/09/23 12:25:18;;;;;;;8.07;2.75;;;15.40;99.90;;;;;;4993736;28;20422;-84
2023/09/23 12:27:44;;;;;;;4.75;2.08;;;15.50;99.90;;;;;;4982704;28;20509;-84
2023/09/23 12:30:10;;;;;;;4.27;2.20;;;15.70;99.90;;;;;;4995064;28;20838;-84
2023/09/23 12:32:36;;;;;;;6.37;2.50;;;15.80;99.90;;;;;;4997313;28;20434;-83
2023/09/23 12:35:02;;;;;;;4.22;2.40;;;16.20;99.90;;;;;;5000519;28;20444;-83
2023/09/23 12:37:30;;;;;;;5.07;2.50;;;16.00;99.90;;;;;;4997093;28;20457;-85
2023/09/23 12:39:56;;;;;;;5.40;2.15;;;16.70;99.90;;;;;;4997762;28;20413;-86
2023/09/23 12:42:22;;;;;;;4.70;2.40;;;16.90;99.90;;;;;;4989149;28;20930;-86
2023/09/23 12:44:48;;;;;;;5.90;2.40;;;17.20;99.90;;;;;;4990678;28;20418;-86
2023/09/23 12:47:14;;;;;;;6.90;2.20;;;17.10;99.90;;;;;;4981719;28;20416;-86
2023/09/23 12:49:40;;;;;;;5.50;2.40;;;17.70;99.90;;;;;;5000662;28;20496;-87
2023/09/23 12:52:06;;;;;;;4.20;1.90;;;17.60;99.90;;;;;;4998886;28;20492;-87
2023/09/23 12:54:32;;;;;;;4.43;2.40;;;17.80;99.90;;;;;;4998818;28;20940;-87
2023/09/23 12:56:58;;;;;;;5.85;2.13;;;18.00;99.90;;;;;;4983848;28;20819;-88
2023/09/23 12:59:24;;;;;;;5.53;2.10;;;18.20;99.90;;;;;;4976497;28;20421;-88